createdAt,value
2023-03-06T00:00:20.644Z,18.10
2023-03-06T00:03:08.496Z,16.50
2023-03-06T00:05:36.941Z,16.00
2023-03-06T00:08:05.132Z,16.40
2023-03-06T00:10:33.645Z,17.50
2023-03-06T00:13:05.842Z,17.70
2023-03-06T00:18:06.462Z,15.40
2023-03-06T00:20:35.894Z,15.60
2023-03-06T00:23:04.559Z,15.80
2023-03-06T00:25:32.691Z,17.30
2023-03-06T00:28:00.553Z,16.30
2023-03-06T00:30:28.693Z,16.90
2023-03-06T00:32:56.679Z,18.10
2023-03-06T00:35:24.983Z,17.70
2023-03-06T00:37:52.997Z,17.40
2023-03-06T00:40:21.743Z,16.00
2023-03-06T00:42:49.938Z,17.80
2023-03-06T00:45:18.447Z,16.60
2023-03-06T00:47:46.778Z,17.10
2023-03-06T00:50:16.447Z,18.80
2023-03-06T00:52:44.482Z,19.70
2023-03-06T00:55:12.443Z,18.70
2023-03-06T00:57:40.494Z,17.60
2023-03-06T01:00:10.945Z,17.10
2023-03-06T01:02:39.332Z,17.60
2023-03-06T01:05:09.220Z,18.30
2023-03-06T01:07:38.696Z,14.70
2023-03-06T01:10:08.594Z,18.00
2023-03-06T01:12:36.598Z,18.60
2023-03-06T01:15:06.896Z,19.00
2023-03-06T01:17:35.940Z,17.90
2023-03-06T01:20:05.323Z,17.80
2023-03-06T01:22:33.344Z,16.70
2023-03-06T01:25:01.507Z,17.80
2023-03-06T01:27:29.538Z,20.00
2023-03-06T01:29:57.689Z,18.40
2023-03-06T01:32:25.880Z,18.80
2023-03-06T01:34:54.194Z,18.60
2023-03-06T01:37:22.260Z,19.20
2023-03-06T01:39:50.402Z,17.50
2023-03-06T01:42:18.503Z,17.60
2023-03-06T01:45:02.633Z,18.20
2023-03-06T01:47:30.492Z,16.80
2023-03-06T01:50:01.390Z,18.40
2023-03-06T01:52:33.208Z,17.10
2023-03-06T01:55:12.596Z,18.90
2023-03-06T01:57:46.737Z,19.30
2023-03-06T02:00:18.664Z,18.40
2023-03-06T02:05:42.155Z,20.00
2023-03-06T02:08:13.337Z,22.00
2023-03-06T02:13:26.168Z,19.20
2023-03-06T02:15:54.220Z,19.40
2023-03-06T02:18:22.449Z,20.20
2023-03-06T02:20:58.972Z,20.50
2023-03-06T02:23:33.815Z,19.10
2023-03-06T02:26:02.710Z,19.00
2023-03-06T02:28:30.728Z,19.60
2023-03-06T02:31:00.760Z,19.10
2023-03-06T02:33:29.793Z,19.60
2023-03-06T02:36:22.725Z,18.90
2023-03-06T02:38:51.977Z,19.10
2023-03-06T02:41:20.939Z,20.80
2023-03-06T02:43:51.659Z,20.20
2023-03-06T02:46:19.613Z,21.40
2023-03-06T02:48:49.007Z,21.40
2023-03-06T02:51:17.215Z,20.30
2023-03-06T02:53:45.336Z,21.30
2023-03-06T02:56:13.497Z,20.50
2023-03-06T02:58:43.255Z,20.70
2023-03-06T03:01:13.549Z,19.80
2023-03-06T03:03:43.234Z,19.30
2023-03-06T03:06:11.325Z,19.90
2023-03-06T03:08:39.715Z,19.60
2023-03-06T03:11:09.381Z,20.20
2023-03-06T03:13:40.223Z,19.70
2023-03-06T03:16:16.211Z,19.50
2023-03-06T03:18:46.027Z,19.40
2023-03-06T03:21:15.706Z,18.60
2023-03-06T03:23:43.825Z,20.10
2023-03-06T03:26:16.354Z,21.40
2023-03-06T03:28:50.264Z,42.30
2023-03-06T03:31:19.928Z,30.80
2023-03-06T03:33:48.024Z,40.40
2023-03-06T03:36:16.198Z,38.60
2023-03-06T03:38:46.729Z,31.20
2023-03-06T03:41:15.390Z,27.20
2023-03-06T03:43:43.408Z,26.60
2023-03-06T03:46:11.670Z,27.50
2023-03-06T03:48:40.011Z,36.00
2023-03-06T03:51:10.496Z,30.20
2023-03-06T03:53:41.332Z,30.30
2023-03-06T03:56:11.482Z,30.40
2023-03-06T03:58:45.467Z,24.00
2023-03-06T04:05:38.425Z,21.20
2023-03-06T04:08:08.421Z,22.50
2023-03-06T04:10:39.556Z,20.30
2023-03-06T04:13:09.988Z,19.90
2023-03-06T04:15:40.177Z,20.20
2023-03-06T04:18:08.199Z,16.30
2023-03-06T04:20:37.992Z,18.10
2023-03-06T04:23:06.318Z,19.30
2023-03-06T04:25:34.416Z,24.90
2023-03-06T04:28:03.861Z,17.70
2023-03-06T04:34:39.331Z,19.50
2023-03-06T04:37:14.144Z,17.80
2023-03-06T04:39:42.133Z,17.50
2023-03-06T04:42:10.384Z,19.40
2023-03-06T04:44:38.558Z,17.40
2023-03-06T04:47:07.055Z,18.00
2023-03-06T04:49:35.061Z,17.10
2023-03-06T04:52:03.888Z,17.80
2023-03-06T04:54:31.873Z,19.40
2023-03-06T04:56:59.831Z,19.30
2023-03-06T04:59:27.876Z,19.80
2023-03-06T05:01:56.030Z,21.70
2023-03-06T05:04:23.912Z,22.20
2023-03-06T05:06:51.853Z,23.70
2023-03-06T05:09:19.747Z,26.60
2023-03-06T05:11:47.698Z,22.80
2023-03-06T05:14:15.687Z,23.10
2023-03-06T05:16:43.728Z,19.70
2023-03-06T05:19:12.916Z,19.90
2023-03-06T05:21:41.066Z,19.90
2023-03-06T05:24:09.757Z,20.80
2023-03-06T05:26:38.078Z,21.20
2023-03-06T05:29:06.472Z,19.30
2023-03-06T05:31:34.456Z,21.90
2023-03-06T05:34:02.417Z,23.00
2023-03-06T05:36:30.422Z,22.30
2023-03-06T05:38:58.335Z,23.90
2023-03-06T05:41:26.390Z,21.60
2023-03-06T05:43:54.380Z,23.30
2023-03-06T05:46:22.311Z,25.80
2023-03-06T05:48:52.477Z,24.90
2023-03-06T05:51:20.429Z,27.40
2023-03-06T05:53:48.342Z,26.10
2023-03-06T05:56:16.904Z,25.70
2023-03-06T05:58:45.013Z,25.90
2023-03-06T06:01:26.474Z,25.60
2023-03-06T06:03:54.497Z,24.10
2023-03-06T06:06:22.620Z,23.80
2023-03-06T06:08:51.545Z,24.70
2023-03-06T06:11:20.883Z,26.00
2023-03-06T06:13:49.141Z,24.80
2023-03-06T06:16:17.197Z,23.70
2023-03-06T06:18:45.575Z,21.90
2023-03-06T06:21:15.133Z,25.00
2023-03-06T06:23:43.416Z,21.20
2023-03-06T06:26:11.450Z,20.90
2023-03-06T06:28:39.833Z,19.80
2023-03-06T06:31:12.522Z,17.90
2023-03-06T06:33:41.461Z,17.80
2023-03-06T06:36:20.765Z,21.20
2023-03-06T06:38:49.864Z,22.10
2023-03-06T06:41:51.831Z,21.10
2023-03-06T06:44:08.625Z,19.50
2023-03-06T06:47:20.897Z,19.10
2023-03-06T06:49:25.888Z,18.70
2023-03-06T06:51:53.863Z,18.20
2023-03-06T06:54:22.482Z,17.80
2023-03-06T06:56:50.691Z,17.60
2023-03-06T06:59:18.875Z,17.10
2023-03-06T07:01:46.860Z,16.40
2023-03-06T07:04:15.671Z,16.10
2023-03-06T07:06:43.688Z,16.30
2023-03-06T07:09:12.862Z,16.60
2023-03-06T07:11:41.384Z,16.40
2023-03-06T07:14:09.485Z,17.30
2023-03-06T07:16:37.963Z,16.20
2023-03-06T07:19:06.872Z,16.80
2023-03-06T07:21:35.040Z,17.80
2023-03-06T07:24:03.409Z,18.70
2023-03-06T07:26:34.383Z,17.00
2023-03-06T07:29:04.377Z,17.50
2023-03-06T07:31:32.906Z,17.60
2023-03-06T07:34:02.522Z,16.70
2023-03-06T07:36:33.900Z,16.30
2023-03-06T07:39:01.990Z,16.60
2023-03-06T07:41:30.016Z,16.60
2023-03-06T07:43:58.138Z,16.10
2023-03-06T07:46:26.621Z,15.10
2023-03-06T07:48:54.592Z,15.20
2023-03-06T07:51:23.014Z,15.60
2023-03-06T07:53:51.069Z,13.80
2023-03-06T07:56:19.189Z,13.90
2023-03-06T07:58:48.867Z,15.40
2023-03-06T08:01:19.933Z,14.40
2023-03-06T08:03:50.104Z,13.20
2023-03-06T08:06:19.608Z,12.70
2023-03-06T08:08:51.767Z,13.10
2023-03-06T08:11:21.863Z,12.80
2023-03-06T08:13:52.849Z,12.70
2023-03-06T08:16:22.749Z,12.10
2023-03-06T08:18:51.450Z,12.70
2023-03-06T08:21:23.722Z,12.00
2023-03-06T08:23:52.321Z,12.80
2023-03-06T08:26:26.603Z,12.70
2023-03-06T08:28:56.656Z,12.20
2023-03-06T08:31:38.202Z,12.50
2023-03-06T08:34:15.766Z,12.30
2023-03-06T08:36:43.964Z,13.00
2023-03-06T08:39:14.281Z,11.70
2023-03-06T08:41:42.409Z,11.20
2023-03-06T08:44:11.305Z,11.60
2023-03-06T08:46:39.812Z,11.10
2023-03-06T08:49:07.898Z,10.70
2023-03-06T08:51:35.936Z,11.10
2023-03-06T08:54:04.245Z,11.20
2023-03-06T08:56:34.078Z,11.40
2023-03-06T08:59:05.614Z,10.80
2023-03-06T09:01:36.856Z,10.90
2023-03-06T09:04:07.294Z,10.60
2023-03-06T09:06:39.789Z,11.10
2023-03-06T09:09:09.546Z,9.90
2023-03-06T09:11:38.245Z,11.00
2023-03-06T09:14:06.879Z,11.30
2023-03-06T09:16:35.195Z,12.20
2023-03-06T09:19:03.856Z,10.60
2023-03-06T09:21:31.964Z,12.20
2023-03-06T09:24:00.326Z,10.80
2023-03-06T09:26:43.440Z,10.80
2023-03-06T09:29:15.932Z,11.20
2023-03-06T09:31:45.145Z,12.40
2023-03-06T09:34:13.567Z,12.50
2023-03-06T09:36:56.900Z,12.20
2023-03-06T09:39:26.299Z,13.90
2023-03-06T09:41:57.353Z,14.40
2023-03-06T09:44:29.247Z,13.10
2023-03-06T09:47:42.401Z,12.70
2023-03-06T09:50:13.417Z,15.60
2023-03-06T09:53:06.159Z,15.40
2023-03-06T09:55:39.864Z,12.30
2023-03-06T09:58:41.560Z,11.80
2023-03-06T10:01:21.071Z,10.40
2023-03-06T10:03:55.371Z,12.00
2023-03-06T10:06:52.029Z,14.30
2023-03-06T10:09:26.407Z,13.30
2023-03-06T10:12:02.592Z,12.10
2023-03-06T10:14:38.252Z,11.80
2023-03-06T10:17:21.696Z,11.30
2023-03-06T10:19:50.848Z,10.90
2023-03-06T10:22:34.271Z,10.60
2023-03-06T10:25:05.461Z,8.60
2023-03-06T10:27:51.386Z,8.40
2023-03-06T10:30:41.631Z,9.40
2023-03-06T10:33:27.409Z,7.10
2023-03-06T10:35:56.439Z,6.50
2023-03-06T10:38:38.494Z,7.10
2023-03-06T10:44:05.235Z,8.20
2023-03-06T10:46:45.218Z,8.70
2023-03-06T10:49:32.739Z,9.70
2023-03-06T10:52:21.507Z,8.90
2023-03-06T10:54:50.147Z,9.50
2023-03-06T10:57:27.670Z,11.60
2023-03-06T11:04:38.243Z,14.30
2023-03-06T11:07:28.270Z,12.60
2023-03-06T11:10:22.034Z,14.60
2023-03-06T11:13:02.879Z,14.90
2023-03-06T11:15:32.016Z,16.50
2023-03-06T11:18:28.537Z,15.30
2023-03-06T11:20:57.048Z,15.60
2023-03-06T11:23:46.539Z,17.60
2023-03-06T11:26:14.573Z,15.40
2023-03-06T11:28:58.558Z,15.70
2023-03-06T11:31:32.384Z,16.10
2023-03-06T11:34:12.537Z,15.70
2023-03-06T11:36:57.146Z,15.80
2023-03-06T11:39:50.263Z,16.50
2023-03-06T11:42:34.960Z,15.00
2023-03-06T11:45:24.973Z,16.90
2023-03-06T11:48:19.101Z,15.50
2023-03-06T11:50:57.585Z,17.30
2023-03-06T11:53:35.429Z,19.00
2023-03-06T11:56:23.675Z,17.90
2023-03-06T11:59:03.407Z,18.60
2023-03-06T12:01:45.459Z,20.40
2023-03-06T12:07:15.890Z,21.30
2023-03-06T12:09:44.292Z,24.80
2023-03-06T12:12:47.730Z,26.00
2023-03-06T12:15:46.524Z,18.20
2023-03-06T12:18:46.942Z,18.30
2023-03-06T12:21:51.987Z,18.00
2023-03-06T12:24:57.202Z,17.20
2023-03-06T12:27:46.980Z,17.80
2023-03-06T12:30:40.656Z,17.80
2023-03-06T12:33:42.037Z,17.90
2023-03-06T12:36:44.210Z,16.60
2023-03-06T12:39:35.791Z,17.40
2023-03-06T12:42:31.867Z,16.30
2023-03-06T12:45:20.870Z,17.70
2023-03-06T12:47:54.406Z,16.90
2023-03-06T12:50:37.654Z,16.10
2023-03-06T12:53:11.562Z,16.10
2023-03-06T12:55:48.755Z,17.00
2023-03-06T12:58:31.847Z,17.40
2023-03-06T13:01:06.378Z,20.00
2023-03-06T13:03:44.928Z,17.70
2023-03-06T13:06:27.478Z,18.40
2023-03-06T13:09:14.916Z,16.80
2023-03-06T13:12:04.227Z,16.70
2023-03-06T13:14:54.747Z,17.50
2023-03-06T13:17:28.514Z,20.20
2023-03-06T13:20:15.057Z,18.60
2023-03-06T13:22:45.127Z,16.40
2023-03-06T13:25:19.514Z,17.20
2023-03-06T13:28:22.398Z,17.20
2023-03-06T13:30:52.848Z,18.10
2023-03-06T13:33:25.834Z,20.40
2023-03-06T13:35:57.105Z,19.70
2023-03-06T13:38:40.422Z,25.00
2023-03-06T13:41:24.009Z,23.40
2023-03-06T13:43:53.348Z,21.30
2023-03-06T13:46:26.202Z,19.50
2023-03-06T13:49:09.172Z,19.00
2023-03-06T13:51:43.270Z,9.70
2023-03-06T13:54:37.535Z,19.50
2023-03-06T13:57:34.998Z,20.00
2023-03-06T14:00:37.797Z,19.30
2023-03-06T14:03:14.885Z,19.40
2023-03-06T14:05:46.283Z,19.40
2023-03-06T14:08:20.751Z,18.60
2023-03-06T14:11:01.593Z,21.20
2023-03-06T14:13:50.627Z,19.20
2023-03-06T14:16:22.192Z,20.50
2023-03-06T14:18:54.028Z,20.50
2023-03-06T14:21:32.415Z,21.10
2023-03-06T14:24:03.472Z,22.80
2023-03-06T14:26:42.000Z,22.20
2023-03-06T14:29:21.685Z,24.90
2023-03-06T14:31:56.014Z,26.70
2023-03-06T14:34:34.749Z,25.20
2023-03-06T14:37:08.238Z,25.50
2023-03-06T14:39:37.513Z,25.50
2023-03-06T14:42:27.954Z,26.20
2023-03-06T14:45:06.115Z,26.40
2023-03-06T14:47:36.489Z,26.10
2023-03-06T14:50:21.649Z,27.90
2023-03-06T14:52:57.199Z,26.70
2023-03-06T14:55:28.462Z,28.10
2023-03-06T14:58:10.748Z,26.70
2023-03-06T15:03:24.448Z,25.10
2023-03-06T15:05:53.792Z,26.90
2023-03-06T15:08:27.296Z,25.90
2023-03-06T15:11:01.446Z,25.00
2023-03-06T15:13:31.146Z,26.00
2023-03-06T15:16:05.242Z,24.30
2023-03-06T15:18:39.779Z,27.20
2023-03-06T15:21:19.548Z,24.20
2023-03-06T15:23:51.096Z,25.40
2023-03-06T15:26:24.779Z,20.30
2023-03-06T15:29:09.444Z,26.20
2023-03-06T15:31:43.697Z,26.90
2023-03-06T15:34:11.700Z,26.20
2023-03-06T15:36:43.974Z,25.70
2023-03-06T15:39:35.846Z,26.00
2023-03-06T15:42:22.481Z,25.30
2023-03-06T15:44:55.346Z,27.10
2023-03-06T15:47:23.657Z,26.30
2023-03-06T15:49:54.637Z,25.80
2023-03-06T15:52:23.260Z,26.20
2023-03-06T15:54:51.391Z,25.10
2023-03-06T15:57:24.183Z,24.60
2023-03-06T15:59:53.623Z,25.40
2023-03-06T16:02:23.330Z,25.60
2023-03-06T16:04:52.574Z,24.30
2023-03-06T16:07:21.290Z,24.50
2023-03-06T16:09:49.718Z,24.30
2023-03-06T16:12:22.192Z,27.90
2023-03-06T16:14:52.001Z,25.20
2023-03-06T16:17:20.306Z,26.10
2023-03-06T16:19:49.349Z,28.10
2023-03-06T16:22:17.361Z,28.10
2023-03-06T16:24:45.433Z,27.30
2023-03-06T16:27:22.832Z,26.70
2023-03-06T16:29:50.997Z,25.60
2023-03-06T16:32:19.141Z,27.10
2023-03-06T16:34:47.176Z,27.40
2023-03-06T16:37:17.096Z,26.90
2023-03-06T16:39:45.052Z,29.30
2023-03-06T16:42:13.187Z,28.90
2023-03-06T16:44:41.376Z,29.00
2023-03-06T16:47:12.312Z,29.50
2023-03-06T16:49:40.360Z,30.20
2023-03-06T16:52:10.886Z,30.60
2023-03-06T16:54:39.194Z,29.70
2023-03-06T16:57:07.296Z,29.50
2023-03-06T16:59:35.389Z,31.30
2023-03-06T17:02:03.517Z,30.20
2023-03-06T17:04:31.597Z,28.70
2023-03-06T17:06:59.810Z,31.80
2023-03-06T17:09:28.149Z,31.70
2023-03-06T17:11:56.618Z,31.00
2023-03-06T17:14:25.026Z,29.80
2023-03-06T17:16:54.386Z,31.70
2023-03-06T17:19:23.175Z,30.80
2023-03-06T17:21:51.614Z,25.90
2023-03-06T17:24:19.581Z,23.60
2023-03-06T17:26:48.817Z,24.70
2023-03-06T17:29:17.628Z,24.10
2023-03-06T17:31:47.153Z,23.30
2023-03-06T17:34:15.202Z,25.20
2023-03-06T17:36:44.542Z,24.30
2023-03-06T17:39:13.197Z,23.50
2023-03-06T17:41:41.365Z,24.10
2023-03-06T17:44:12.163Z,24.60
2023-03-06T17:46:40.432Z,23.70
2023-03-06T17:49:08.650Z,24.40
2023-03-06T17:51:37.101Z,25.60
2023-03-06T17:54:05.226Z,29.60
2023-03-06T17:56:33.896Z,28.90
2023-03-06T17:59:02.301Z,29.20
2023-03-06T18:01:30.676Z,28.90
2023-03-06T18:03:59.340Z,29.70
2023-03-06T18:06:30.169Z,33.80
2023-03-06T18:08:59.172Z,25.70
2023-03-06T18:11:27.987Z,35.70
2023-03-06T18:13:56.557Z,34.30
2023-03-06T18:16:26.552Z,31.00
2023-03-06T18:18:56.851Z,30.40
2023-03-06T18:21:25.508Z,29.30
2023-03-06T18:23:53.950Z,27.90
2023-03-06T18:26:24.757Z,30.20
2023-03-06T18:28:57.188Z,29.60
2023-03-06T18:31:28.919Z,29.80
2023-03-06T18:33:59.692Z,29.00
2023-03-06T18:36:31.942Z,20.00
2023-03-06T18:39:03.902Z,29.80
2023-03-06T18:41:32.564Z,28.70
2023-03-06T18:44:01.509Z,29.30
2023-03-06T18:46:35.480Z,29.20
2023-03-06T18:49:04.948Z,28.80
2023-03-06T18:51:35.060Z,31.00
2023-03-06T18:54:05.311Z,29.90
2023-03-06T18:56:34.150Z,28.40
2023-03-06T18:59:04.664Z,27.60
2023-03-06T19:04:39.223Z,24.60
2023-03-06T19:07:07.613Z,26.90
2023-03-06T19:09:35.941Z,26.80
2023-03-06T19:12:04.297Z,21.50
2023-03-06T19:14:32.282Z,19.50
2023-03-06T19:17:00.350Z,20.30
2023-03-06T19:19:29.426Z,17.90
2023-03-06T19:21:58.552Z,18.50
2023-03-06T19:24:27.056Z,16.90
2023-03-06T19:26:55.655Z,17.30
2023-03-06T19:29:23.895Z,15.80
2023-03-06T19:31:52.320Z,14.60
2023-03-06T19:34:20.555Z,15.20
2023-03-06T19:36:50.554Z,15.10
2023-03-06T19:39:18.850Z,15.10
2023-03-06T19:41:48.011Z,15.00
2023-03-06T19:44:16.684Z,16.90
2023-03-06T19:46:44.956Z,16.20
2023-03-06T19:49:16.861Z,15.50
2023-03-06T19:51:45.511Z,16.40
2023-03-06T19:54:14.322Z,18.40
2023-03-06T19:56:42.593Z,21.20
2023-03-06T19:59:10.937Z,22.40
2023-03-06T20:01:39.779Z,24.50
2023-03-06T20:04:08.266Z,22.70
2023-03-06T20:06:39.034Z,22.20
2023-03-06T20:09:09.129Z,20.70
2023-03-06T20:11:38.187Z,20.00
2023-03-06T20:14:07.777Z,20.30
2023-03-06T20:16:35.989Z,18.90
2023-03-06T20:19:05.331Z,16.40
2023-03-06T20:21:37.608Z,15.00
2023-03-06T20:24:07.532Z,14.80
2023-03-06T20:26:38.321Z,14.30
2023-03-06T20:29:06.500Z,14.00
2023-03-06T20:31:34.819Z,13.70
2023-03-06T20:34:04.368Z,13.10
2023-03-06T20:36:36.072Z,13.20
2023-03-06T20:39:09.040Z,13.90
2023-03-06T20:41:37.191Z,12.80
2023-03-06T20:44:08.074Z,13.10
2023-03-06T20:46:37.372Z,13.30
2023-03-06T20:49:05.913Z,14.00
2023-03-06T20:51:39.126Z,14.50
2023-03-06T20:54:10.627Z,14.60
2023-03-06T20:56:41.495Z,12.60
2023-03-06T20:59:12.391Z,12.90
2023-03-06T21:01:42.751Z,12.90
2023-03-06T21:04:16.220Z,13.20
2023-03-06T21:06:47.099Z,13.50
2023-03-06T21:09:16.977Z,13.30
2023-03-06T21:11:46.372Z,14.10
2023-03-06T21:14:15.541Z,14.10
2023-03-06T21:16:43.961Z,13.90
2023-03-06T21:19:12.284Z,13.30
2023-03-06T21:21:40.797Z,14.50
2023-03-06T21:24:08.805Z,13.60
2023-03-06T21:26:36.966Z,13.20
2023-03-06T21:29:05.829Z,14.10
2023-03-06T21:31:34.233Z,14.90
2023-03-06T21:34:04.874Z,13.40
2023-03-06T21:36:33.847Z,14.80
2023-03-06T21:39:03.839Z,14.10
2023-03-06T21:41:33.139Z,14.10
2023-03-06T21:44:05.200Z,14.80
2023-03-06T21:46:34.332Z,14.50
2023-03-06T21:49:04.408Z,13.90
2023-03-06T21:51:32.831Z,13.90
2023-03-06T21:54:02.199Z,14.30
2023-03-06T21:56:30.324Z,14.80
2023-03-06T21:58:59.159Z,14.50
2023-03-06T22:01:29.180Z,15.70
2023-03-06T22:03:58.623Z,15.20
2023-03-06T22:06:28.975Z,15.60
2023-03-06T22:08:58.902Z,16.70
2023-03-06T22:11:31.270Z,16.20
2023-03-06T22:13:59.607Z,16.70
2023-03-06T22:16:27.926Z,18.30
2023-03-06T22:18:56.724Z,18.20
2023-03-06T22:21:25.295Z,17.00
2023-03-06T22:23:57.311Z,18.70
2023-03-06T22:28:54.588Z,16.40
2023-03-06T22:31:25.574Z,19.80
2023-03-06T22:33:55.301Z,21.40
2023-03-06T22:36:24.277Z,21.40
2023-03-06T22:38:58.312Z,22.30
2023-03-06T22:41:27.268Z,22.80
2023-03-06T22:43:57.108Z,21.80
2023-03-06T22:46:25.672Z,22.20
2023-03-06T22:48:56.364Z,23.80
2023-03-06T22:51:25.200Z,23.00
2023-03-06T22:53:53.458Z,24.00
2023-03-06T22:56:21.786Z,25.50
2023-03-06T22:58:51.109Z,24.50
2023-03-06T23:01:22.720Z,27.70
2023-03-06T23:03:53.037Z,26.30
2023-03-06T23:06:24.082Z,26.40
2023-03-06T23:09:01.223Z,26.40
2023-03-06T23:11:30.340Z,25.30
2023-03-06T23:14:18.588Z,26.30
2023-03-06T23:17:05.379Z,27.70
2023-03-06T23:19:53.205Z,28.70
2023-03-06T23:22:39.988Z,27.60
2023-03-06T23:25:26.990Z,28.30
2023-03-06T23:27:55.787Z,26.30
2023-03-06T23:30:23.729Z,25.80
2023-03-06T23:32:52.141Z,26.00
2023-03-06T23:35:20.683Z,26.00
2023-03-06T23:37:48.569Z,24.90
2023-03-06T23:40:17.027Z,24.90
2023-03-06T23:42:45.437Z,25.70
2023-03-06T23:45:13.424Z,26.80
2023-03-06T23:47:47.713Z,26.10
2023-03-06T23:50:16.161Z,28.70
2023-03-06T23:52:44.184Z,28.60
2023-03-06T23:55:12.598Z,28.80
2023-03-06T23:57:40.573Z,29.10
